Flight Track Log - Related Links

Times and Time Zones

All times are in EDT time to prevent confusion due to time zone crossing. See the N82HK flight status page for this flight to view local times or setup timezone preferences in your user account.

Time Position Orientation Groundspeed Altitude Reporting Facility
EDT Latitude Longitude Course Direction KTS MPH feet Rate Location/Type
Wed 05:40:10 PM 47.5092 -122.2861 141° Southeast 109 125 800  Level Seattle Center
Wed 05:40:47 PM 47.4961 -122.2703 141° Southeast 94 108 1,700 1,286 Climbing Seattle Center
Wed 05:41:48 PM 47.4711 -122.2414 142° Southeast 119 137 2,900 874 Climbing Seattle Center
Wed 05:43:18 PM 47.4425 -122.1758 123° Southeast 163 188 3,900 793 Climbing Seattle Center
Wed 05:43:49 PM 47.4539 -122.1394 65° Northeast 186 214 4,500 1,377 Climbing Seattle Center
Wed 05:44:19 PM 47.4614 -122.1081 71° East 166 191 5,300 989 Climbing Seattle Center
Wed 05:45:20 PM 47.4794 -122.0458 67° East 162 186 6,000 836 Climbing Seattle Center
Wed 05:46:21 PM 47.4961 -121.9836 68° East 165 190 7,000 1,131 Climbing Seattle Center
Wed 05:47:22 PM 47.5108 -121.9275 69° East 147 169 8,300 1,230 Climbing Seattle Center
Wed 05:48:23 PM 47.5261 -121.8731 67° East 137 158 9,500 1,131 Climbing Seattle Center
Wed 05:49:24 PM 47.5403 -121.8211 68° East 137 158 10,600 984 Climbing Seattle Center
Wed 05:50:25 PM 47.5542 -121.7711 68° East 134 154 11,500 836 Climbing Seattle Center
Wed 05:51:26 PM 47.5639 -121.7117 76° East 148 170 12,300 787 Climbing Seattle Center
Wed 05:52:27 PM 47.5619 -121.6450 92° East 160 184 13,100 787 Climbing Seattle Center
Wed 05:53:28 PM 47.5614 -121.5728 91° East 162 186 13,900 836 Climbing Seattle Center
Wed 05:54:29 PM 47.5594 -121.5028 92° East 167 192 14,800 836 Climbing Seattle Center
Wed 05:55:30 PM 47.5639 -121.4358 84° East 166 191 15,600 689 Climbing Seattle Center
Wed 05:56:31 PM 47.5778 -121.3714 72° East 163 188 16,200 639 Climbing Seattle Center
Wed 05:57:32 PM 47.5894 -121.3036 76° East 170 196 16,900 639 Climbing Seattle Center
Wed 05:58:33 PM 47.6028 -121.2289 75° East 172 198 17,500 492 Climbing Seattle Center
Wed 05:59:34 PM 47.6125 -121.1692 76° East 174 200 17,900 492 Climbing Seattle Center
Wed 06:00:35 PM 47.6225 -121.1014 78° East 171 197 18,500 541 Climbing Seattle Center
Wed 06:01:36 PM 47.6372 -121.0197 75° East 171 197 19,000 246 Climbing Seattle Center
Wed 06:02:37 PM 47.6500 -120.9425 76° East 189 217 19,000  Level Seattle Center
Wed 06:03:38 PM 47.6631 -120.8614 77° East 200 230 19,000  Level Seattle Center
Wed 06:04:39 PM 47.6769 -120.7800 76° East 209 241 19,000  Level Seattle Center
Wed 06:05:40 PM 47.6897 -120.6956 77° East 209 241 19,000  Level Seattle Center
Wed 06:06:41 PM 47.7061 -120.6117 74° East 210 242 19,000  Level Seattle Center
Wed 06:07:42 PM 47.7169 -120.5283 79° East 209 241 19,000  Level Seattle Center
Wed 06:08:43 PM 47.7342 -120.4433 73° East 210 242 19,000  Level Seattle Center
Wed 06:09:44 PM 47.7486 -120.3611 75° East 211 243 19,000 -49 Level Seattle Center
Wed 06:10:45 PM 47.7611 -120.2825 77° East 203 234 18,900  Descending Seattle Center
Wed 06:11:46 PM 47.7731 -120.2017 78° East 202 232 19,000 49 Climbing Seattle Center
Wed 06:12:47 PM 47.7878 -120.1061 77° East 201 231 19,000  Level Seattle Center
Wed 06:13:00 PM 47.7772 -120.1172 77° East  Level FlightAware Approximate
Wed 06:13:48 PM 47.8006 -120.0272 76° East 200 230 19,000  Level Seattle Center
Wed 06:14:49 PM 47.8139 -119.9472 76° East 200 230 19,000  Level Seattle Center
Wed 06:15:50 PM 47.8269 -119.8675 76° East 200 230 19,000  Level Seattle Center
Wed 06:16:51 PM 47.8386 -119.7917 77° East 195 224 19,000  Level Seattle Center
Wed 06:17:52 PM 47.8508 -119.7128 77° East 195 224 19,000  Level Seattle Center
Wed 06:18:53 PM 47.8636 -119.6328 77° East 195 224 19,000  Level Seattle Center
Wed 06:19:54 PM 47.8750 -119.5550 78° East 195 224 19,000  Level Seattle Center
Wed 06:20:55 PM 47.8881 -119.4758 76° East 195 224 19,000  Level Seattle Center
Wed 06:21:56 PM 47.9008 -119.3956 77° East 196 226 19,000  Level Seattle Center
Wed 06:22:57 PM 47.9133 -119.3169 77° East 196 226 19,000  Level Seattle Center
Wed 06:23:58 PM 47.9244 -119.2375 78° East 196 226 19,000  Level Seattle Center
Wed 06:24:59 PM 47.9386 -119.1406 78° East 196 226 19,000  Level Seattle Center
Wed 06:26:00 PM 47.9517 -119.0586 77° East 197 227 19,000  Level Seattle Center
Wed 06:27:01 PM 47.9653 -118.9789 76° East 197 227 19,000  Level Seattle Center
Wed 06:28:02 PM 47.9767 -118.8981 78° East 197 227 19,000  Level Seattle Center
Wed 06:29:03 PM 47.9883 -118.8172 78° East 197 227 19,000  Level Seattle Center
Wed 06:30:04 PM 48.0006 -118.7389 77° East 197 227 19,000  Level Seattle Center
Wed 06:31:05 PM 48.0122 -118.6572 78° East 197 227 19,000  Level Seattle Center
Wed 06:32:06 PM 48.0236 -118.5761 78° East 198 228 19,000  Level Seattle Center
Wed 06:33:07 PM 48.0358 -118.4953 77° East 198 228 19,000  Level Seattle Center
Wed 06:34:08 PM 48.0475 -118.4144 78° East 198 228 19,000  Level Seattle Center
Wed 06:35:09 PM 48.0589 -118.3339 78° East 198 228 19,000  Level Seattle Center
Wed 06:36:10 PM 48.0686 -118.2522 80° East 198 228 19,000  Level Seattle Center
Wed 06:37:11 PM 48.0769 -118.1525 83° East 202 232 19,000  Level Seattle Center
Wed 06:38:12 PM 48.0861 -118.0689 81° East 202 232 19,000 -49 Level Seattle Center
Wed 06:39:13 PM 48.0933 -117.9864 83° East 202 232 18,900  Descending Seattle Center
Wed 06:40:14 PM 48.1014 -117.9031 82° East 202 232 19,000 49 Climbing Seattle Center
Wed 06:41:15 PM 48.1078 -117.8208 83° East 202 232 19,000  Level Seattle Center
Wed 06:42:16 PM 48.1153 -117.7375 82° East 202 232 19,000  Level Seattle Center
Wed 06:43:17 PM 48.1242 -117.6522 81° East 203 234 19,000 -197 Level Seattle Center
Wed 06:44:18 PM 48.1314 -117.5664 83° East 204 235 18,600 -689 Descending Seattle Center
Wed 06:45:19 PM 48.1400 -117.4597 83° East 220 253 17,600 -1,033 Descending Seattle Center
Wed 06:46:20 PM 48.1486 -117.3667 82° East 225 259 16,500 -1,082 Descending Seattle Center
Wed 06:47:21 PM 48.1558 -117.2733 83° East 225 259 15,400 -1,082 Descending Seattle Center
Wed 06:48:22 PM 48.1636 -117.1925 82° East 227 261 14,300 -1,082 Descending Seattle Center
Wed 06:49:23 PM 48.1522 -117.1044 101° East 215 247 13,200 -1,082 Descending Seattle Center
Wed 06:50:24 PM 48.1400 -117.0161 102° East 217 250 12,100 -1,180 Descending Seattle Center
Wed 06:51:25 PM 48.1239 -116.9139 103° East 212 244 10,800 -1,328 Descending Seattle Center
Wed 06:52:26 PM 48.1103 -116.8267 103° East 213 245 9,400 -1,230 Descending Seattle Center
Wed 06:53:27 PM 48.0972 -116.7433 103° East 208 239 8,300 -984 Descending Seattle Center
Wed 06:54:28 PM 48.0850 -116.6636 103° East 201 231 7,400 -836 Descending Seattle Center
Wed 06:55:29 PM 48.1075 -116.5989 62° Northeast 196 226 6,600 -689 Descending Seattle Center
Wed 06:56:30 PM 48.1578 -116.5906 North 186 214 6,000 -689 Descending Seattle Center
Wed 06:57:31 PM 48.2081 -116.5806 North 184 212 5,200 -738 Descending Seattle Center
Wed 06:58:32 PM 48.2539 -116.5692 North 183 211 4,500 -689 Descending Seattle Center
Wed 07:00:00 PM 48.2833 -116.5500 North  Level FlightAware Approximate
Wed 07:07:00 PM 48.2995 -116.5601 North  Level Estimated
Wed 07:08:00 PM 48.2995 -116.5601 157° South  Level Estimated
Wed 07:09:00 PM 48.2995 -116.5601 North  Level Estimated
Wed 07:10:00 PM 48.2995 -116.5601 157° South  Level Estimated
Wed 07:11:00 PM 48.2995 -116.5601 North  Level Estimated
Wed 07:12:00 PM 48.2995 -116.5601 157° South  Level Estimated

Login

Don't have an account? Register now (free) for customized features, flight alerts, and more!